sensor_id;sensor_type;location;lat;lon;timestamp;pressure;altitude;pressure_sealevel;temperature;humidity
15272;BME280;7737;51.578;7.268;2024-01-10T00:01:45;102478.13;;;-4.33;96.34
15272;BME280;7737;51.578;7.268;2024-01-10T00:04:12;102492.66;;;-4.36;96.61
15272;BME280;7737;51.578;7.268;2024-01-10T00:06:39;102496.19;;;-4.34;96.88
15272;BME280;7737;51.578;7.268;2024-01-10T00:09:05;102491.69;;;-4.40;96.66
15272;BME280;7737;51.578;7.268;2024-01-10T00:11:32;102488.50;;;-4.33;95.97
15272;BME280;7737;51.578;7.268;2024-01-10T00:13:58;102488.00;;;-4.45;96.92
15272;BME280;7737;51.578;7.268;2024-01-10T00:16:26;102493.44;;;-4.39;97.57
15272;BME280;7737;51.578;7.268;2024-01-10T00:18:53;102501.19;;;-4.40;96.95
15272;BME280;7737;51.578;7.268;2024-01-10T00:21:19;102496.19;;;-4.56;97.41
15272;BME280;7737;51.578;7.268;2024-01-10T00:23:46;102504.25;;;-4.50;98.72
15272;BME280;7737;51.578;7.268;2024-01-10T00:26:12;102512.44;;;-4.60;99.29
15272;BME280;7737;51.578;7.268;2024-01-10T00:28:39;102516.88;;;-4.58;99.19
15272;BME280;7737;51.578;7.268;2024-01-10T00:31:05;102516.53;;;-4.67;99.57
15272;BME280;7737;51.578;7.268;2024-01-10T00:33:33;102530.16;;;-4.71;100.00
15272;BME280;7737;51.578;7.268;2024-01-10T00:36:00;102529.34;;;-4.70;100.00
15272;BME280;7737;51.578;7.268;2024-01-10T00:38:27;102524.00;;;-4.74;100.00
15272;BME280;7737;51.578;7.268;2024-01-10T00:40:53;102522.34;;;-4.72;100.00
15272;BME280;7737;51.578;7.268;2024-01-10T00:43:21;102529.22;;;-4.73;100.00
15272;BME280;7737;51.578;7.268;2024-01-10T00:45:47;102535.97;;;-4.76;100.00
15272;BME280;7737;51.578;7.268;2024-01-10T00:48:14;102532.59;;;-4.75;100.00
15272;BME280;7737;51.578;7.268;2024-01-10T00:50:43;102534.72;;;-4.86;100.00
15272;BME280;7737;51.578;7.268;2024-01-10T00:53:10;102531.69;;;-4.76;100.00
15272;BME280;7737;51.578;7.268;2024-01-10T00:55:37;102524.63;;;-4.80;100.00
15272;BME280;7737;51.578;7.268;2024-01-10T00:58:03;102528.78;;;-4.83;100.00
15272;BME280;7737;51.578;7.268;2024-01-10T01:00:30;102527.56;;;-4.92;100.00
15272;BME280;7737;51.578;7.268;2024-01-10T01:02:56;102540.34;;;-4.96;100.00
15272;BME280;7737;51.578;7.268;2024-01-10T01:05:23;102544.59;;;-4.98;100.00
15272;BME280;7737;51.578;7.268;2024-01-10T01:07:50;102544.91;;;-4.90;100.00
15272;BME280;7737;51.578;7.268;2024-01-10T01:10:17;102537.91;;;-4.93;100.00
15272;BME280;7737;51.578;7.268;2024-01-10T01:12:43;102545.81;;;-4.90;100.00
15272;BME280;7737;51.578;7.268;2024-01-10T01:15:10;102540.34;;;-4.96;100.00
15272;BME280;7737;51.578;7.268;2024-01-10T01:17:36;102541.44;;;-4.91;100.00
15272;BME280;7737;51.578;7.268;2024-01-10T01:20:03;102544.72;;;-4.95;100.00
15272;BME280;7737;51.578;7.268;2024-01-10T01:22:30;102549.38;;;-5.07;100.00
15272;BME280;7737;51.578;7.268;2024-01-10T01:24:58;102552.69;;;-4.90;100.00
15272;BME280;7737;51.578;7.268;2024-01-10T01:27:24;102554.84;;;-5.01;100.00
15272;BME280;7737;51.578;7.268;2024-01-10T01:29:50;102552.38;;;-4.98;100.00
15272;BME280;7737;51.578;7.268;2024-01-10T01:32:17;102547.31;;;-4.95;100.00
15272;BME280;7737;51.578;7.268;2024-01-10T01:34:43;102559.13;;;-5.02;100.00
15272;BME280;7737;51.578;7.268;2024-01-10T01:37:10;102545.53;;;-4.96;100.00
15272;BME280;7737;51.578;7.268;2024-01-10T01:39:36;102543.25;;;-5.09;100.00
15272;BME280;7737;51.578;7.268;2024-01-10T01:42:04;102544.91;;;-5.11;100.00
15272;BME280;7737;51.578;7.268;2024-01-10T01:44:31;102547.50;;;-5.11;100.00
15272;BME280;7737;51.578;7.268;2024-01-10T01:46:57;102542.69;;;-5.21;100.00
15272;BME280;7737;51.578;7.268;2024-01-10T01:49:24;102545.44;;;-5.18;100.00
15272;BME280;7737;51.578;7.268;2024-01-10T01:51:51;102551.03;;;-5.09;100.00
15272;BME280;7737;51.578;7.268;2024-01-10T01:54:18;102552.91;;;-5.05;100.00
15272;BME280;7737;51.578;7.268;2024-01-10T01:56:46;102562.16;;;-5.12;100.00
15272;BME280;7737;51.578;7.268;2024-01-10T01:59:14;102537.75;;;-5.17;100.00
15272;BME280;7737;51.578;7.268;2024-01-10T02:01:40;102548.59;;;-5.25;100.00
15272;BME280;7737;51.578;7.268;2024-01-10T02:04:07;102542.69;;;-5.21;100.00
15272;BME280;7737;51.578;7.268;2024-01-10T02:06:34;102550.88;;;-5.12;100.00
15272;BME280;7737;51.578;7.268;2024-01-10T02:09:00;102556.09;;;-5.31;100.00
15272;BME280;7737;51.578;7.268;2024-01-10T02:11:28;102554.81;;;-5.22;100.00
15272;BME280;7737;51.578;7.268;2024-01-10T02:13:55;102558.81;;;-5.28;100.00
15272;BME280;7737;51.578;7.268;2024-01-10T02:16:23;102563.06;;;-5.30;100.00
15272;BME280;7737;51.578;7.268;2024-01-10T02:18:50;102561.53;;;-5.44;100.00
15272;BME280;7737;51.578;7.268;2024-01-10T02:21:16;102558.34;;;-5.39;100.00
15272;BME280;7737;51.578;7.268;2024-01-10T02:23:43;102560.59;;;-5.46;100.00
15272;BME280;7737;51.578;7.268;2024-01-10T02:26:10;102564.06;;;-5.46;100.00
15272;BME280;7737;51.578;7.268;2024-01-10T02:28:37;102562.38;;;-5.45;100.00
15272;BME280;7737;51.578;7.268;2024-01-10T02:31:03;102558.47;;;-5.55;100.00
15272;BME280;7737;51.578;7.268;2024-01-10T02:33:32;102553.91;;;-5.61;100.00
15272;BME280;7737;51.578;7.268;2024-01-10T02:35:58;102555.81;;;-5.57;100.00
15272;BME280;7737;51.578;7.268;2024-01-10T02:38:24;102555.41;;;-5.66;100.00
15272;BME280;7737;51.578;7.268;2024-01-10T02:40:52;102559.41;;;-5.53;100.00
15272;BME280;7737;51.578;7.268;2024-01-10T02:43:20;102566.44;;;-5.50;100.00
15272;BME280;7737;51.578;7.268;2024-01-10T02:45:46;102571.09;;;-5.43;100.00
15272;BME280;7737;51.578;7.268;2024-01-10T02:48:13;102568.41;;;-5.45;100.00
15272;BME280;7737;51.578;7.268;2024-01-10T02:50:39;102572.06;;;-5.41;100.00
15272;BME280;7737;51.578;7.268;2024-01-10T02:53:06;102565.63;;;-5.69;100.00
15272;BME280;7737;51.578;7.268;2024-01-10T02:55:32;102576.25;;;-5.63;100.00
15272;BME280;7737;51.578;7.268;2024-01-10T02:57:59;102572.59;;;-5.68;100.00
15272;BME280;7737;51.578;7.268;2024-01-10T03:00:26;102580.50;;;-5.65;100.00
15272;BME280;7737;51.578;7.268;2024-01-10T03:02:53;102576.97;;;-5.67;100.00
15272;BME280;7737;51.578;7.268;2024-01-10T03:05:19;102585.38;;;-5.71;100.00
15272;BME280;7737;51.578;7.268;2024-01-10T03:07:46;102578.44;;;-5.53;100.00
15272;BME280;7737;51.578;7.268;2024-01-10T03:10:13;102575.28;;;-5.84;100.00
15272;BME280;7737;51.578;7.268;2024-01-10T03:12:39;102569.94;;;-5.88;100.00
15272;BME280;7737;51.578;7.268;2024-01-10T03:15:06;102572.84;;;-5.81;100.00
15272;BME280;7737;51.578;7.268;2024-01-10T03:17:34;102561.28;;;-5.89;100.00
15272;BME280;7737;51.578;7.268;2024-01-10T03:20:01;102563.56;;;-5.76;100.00
15272;BME280;7737;51.578;7.268;2024-01-10T03:22:29;102562.47;;;-5.81;100.00
15272;BME280;7737;51.578;7.268;2024-01-10T03:24:55;102559.19;;;-5.77;100.00
15272;BME280;7737;51.578;7.268;2024-01-10T03:27:22;102555.00;;;-5.75;100.00
15272;BME280;7737;51.578;7.268;2024-01-10T03:29:48;102556.91;;;-5.71;100.00
15272;BME280;7737;51.578;7.268;2024-01-10T03:32:15;102551.72;;;-5.71;100.00
15272;BME280;7737;51.578;7.268;2024-01-10T03:34:43;102550.97;;;-5.68;100.00
15272;BME280;7737;51.578;7.268;2024-01-10T03:37:09;102543.91;;;-5.72;100.00
15272;BME280;7737;51.578;7.268;2024-01-10T03:39:36;102548.47;;;-5.67;100.00
15272;BME280;7737;51.578;7.268;2024-01-10T03:42:03;102541.50;;;-5.68;100.00
15272;BME280;7737;51.578;7.268;2024-01-10T03:44:29;102546.13;;;-5.61;100.00
15272;BME280;7737;51.578;7.268;2024-01-10T03:46:56;102534.13;;;-5.59;100.00
15272;BME280;7737;51.578;7.268;2024-01-10T03:49:22;102531.97;;;-5.49;100.00
15272;BME280;7737;51.578;7.268;2024-01-10T03:51:50;102528.13;;;-5.58;100.00
15272;BME280;7737;51.578;7.268;2024-01-10T03:54:17;102532.22;;;-5.63;100.00
15272;BME280;7737;51.578;7.268;2024-01-10T03:56:43;102524.59;;;-5.60;100.00
15272;BME280;7737;51.578;7.268;2024-01-10T03:59:10;102523.84;;;-5.76;100.00
15272;BME280;7737;51.578;7.268;2024-01-10T04:01:36;102525.00;;;-5.70;100.00
15272;BME280;7737;51.578;7.268;2024-01-10T04:04:04;102532.84;;;-5.68;100.00
15272;BME280;7737;51.578;7.268;2024-01-10T04:06:31;102534.13;;;-5.59;100.00
15272;BME280;7737;51.578;7.268;2024-01-10T04:08:58;102532.25;;;-5.43;100.00
15272;BME280;7737;51.578;7.268;2024-01-10T04:11:25;102525.00;;;-5.31;100.00
15272;BME280;7737;51.578;7.268;2024-01-10T04:13:51;102525.13;;;-5.47;100.00
15272;BME280;7737;51.578;7.268;2024-01-10T04:16:18;102532.66;;;-5.73;100.00
15272;BME280;7737;51.578;7.268;2024-01-10T04:18:44;102520.34;;;-5.77;100.00
15272;BME280;7737;51.578;7.268;2024-01-10T04:21:11;102519.09;;;-5.86;100.00
15272;BME280;7737;51.578;7.268;2024-01-10T04:23:38;102522.59;;;-5.86;100.00
15272;BME280;7737;51.578;7.268;2024-01-10T04:26:06;102525.16;;;-5.86;100.00
15272;BME280;7737;51.578;7.268;2024-01-10T04:28:32;102528.13;;;-5.77;100.00
15272;BME280;7737;51.578;7.268;2024-01-10T04:30:59;102536.94;;;-5.73;100.00
15272;BME280;7737;51.578;7.268;2024-01-10T04:33:25;102534.53;;;-5.69;100.00
15272;BME280;7737;51.578;7.268;2024-01-10T04:35:52;102532.94;;;-5.86;100.00
15272;BME280;7737;51.578;7.268;2024-01-10T04:38:18;102529.41;;;-5.88;100.00
15272;BME280;7737;51.578;7.268;2024-01-10T04:40:45;102533.06;;;-5.83;100.00
15272;BME280;7737;51.578;7.268;2024-01-10T04:43:13;102535.75;;;-5.80;100.00
15272;BME280;7737;51.578;7.268;2024-01-10T04:45:39;102533.94;;;-5.63;100.00
15272;BME280;7737;51.578;7.268;2024-01-10T04:48:06;102537.97;;;-5.70;100.00
15272;BME280;7737;51.578;7.268;2024-01-10T04:50:34;102528.16;;;-5.96;100.00
15272;BME280;7737;51.578;7.268;2024-01-10T04:53:00;102526.53;;;-5.94;100.00
15272;BME280;7737;51.578;7.268;2024-01-10T04:55:27;102528.47;;;-5.69;100.00
15272;BME280;7737;51.578;7.268;2024-01-10T04:57:54;102532.44;;;-5.58;100.00
15272;BME280;7737;51.578;7.268;2024-01-10T05:00:21;102522.88;;;-5.78;100.00
15272;BME280;7737;51.578;7.268;2024-01-10T05:02:48;102515.72;;;-5.85;100.00
15272;BME280;7737;51.578;7.268;2024-01-10T05:05:14;102517.91;;;-5.93;100.00
15272;BME280;7737;51.578;7.268;2024-01-10T05:07:41;102515.22;;;-5.96;100.00
15272;BME280;7737;51.578;7.268;2024-01-10T05:10:08;102515.72;;;-6.03;100.00
15272;BME280;7737;51.578;7.268;2024-01-10T05:12:34;102508.41;;;-5.94;100.00
15272;BME280;7737;51.578;7.268;2024-01-10T05:15:01;102511.75;;;-5.96;100.00
15272;BME280;7737;51.578;7.268;2024-01-10T05:17:28;102517.50;;;-5.83;100.00
15272;BME280;7737;51.578;7.268;2024-01-10T05:19:55;102510.16;;;-5.93;100.00
15272;BME280;7737;51.578;7.268;2024-01-10T05:22:21;102501.69;;;-6.08;100.00
15272;BME280;7737;51.578;7.268;2024-01-10T05:24:48;102508.38;;;-6.13;100.00
15272;BME280;7737;51.578;7.268;2024-01-10T05:27:14;102521.41;;;-5.92;100.00
15272;BME280;7737;51.578;7.268;2024-01-10T05:29:41;102522.25;;;-5.93;100.00
15272;BME280;7737;51.578;7.268;2024-01-10T05:32:08;102520.66;;;-5.90;100.00
15272;BME280;7737;51.578;7.268;2024-01-10T05:34:35;102519.41;;;-5.98;100.00
15272;BME280;7737;51.578;7.268;2024-01-10T05:37:02;102519.41;;;-5.98;100.00
15272;BME280;7737;51.578;7.268;2024-01-10T05:39:29;102516.56;;;-5.85;100.00
15272;BME280;7737;51.578;7.268;2024-01-10T05:41:55;102513.56;;;-5.94;100.00
15272;BME280;7737;51.578;7.268;2024-01-10T05:44:22;102507.72;;;-5.90;100.00
15272;BME280;7737;51.578;7.268;2024-01-10T05:46:48;102514.66;;;-5.89;100.00
15272;BME280;7737;51.578;7.268;2024-01-10T05:49:15;102515.72;;;-5.85;100.00
15272;BME280;7737;51.578;7.268;2024-01-10T05:51:43;102507.34;;;-5.78;100.00
15272;BME280;7737;51.578;7.268;2024-01-10T05:54:09;102511.63;;;-5.79;100.00
15272;BME280;7737;51.578;7.268;2024-01-10T05:56:36;102515.75;;;-5.65;100.00
15272;BME280;7737;51.578;7.268;2024-01-10T05:59:03;102516.84;;;-5.60;100.00
15272;BME280;7737;51.578;7.268;2024-01-10T06:01:30;102510.63;;;-5.63;100.00
15272;BME280;7737;51.578;7.268;2024-01-10T06:03:56;102517.91;;;-5.55;100.00
15272;BME280;7737;51.578;7.268;2024-01-10T06:06:23;102510.94;;;-5.56;100.00
15272;BME280;7737;51.578;7.268;2024-01-10T06:08:51;102519.72;;;-5.53;100.00
15272;BME280;7737;51.578;7.268;2024-01-10T06:11:19;102517.09;;;-5.73;100.00
15272;BME280;7737;51.578;7.268;2024-01-10T06:13:46;102511.94;;;-5.73;100.00
15272;BME280;7737;51.578;7.268;2024-01-10T06:16:12;102520.97;;;-5.63;100.00
15272;BME280;7737;51.578;7.268;2024-01-10T06:18:39;102511.63;;;-5.79;100.00
15272;BME280;7737;51.578;7.268;2024-01-10T06:21:06;102506.75;;;-5.73;100.00
15272;BME280;7737;51.578;7.268;2024-01-10T06:23:32;102508.16;;;-5.60;100.00
15272;BME280;7737;51.578;7.268;2024-01-10T06:26:01;102518.06;;;-5.51;100.00
15272;BME280;7737;51.578;7.268;2024-01-10T06:28:27;102512.88;;;-5.51;100.00
15272;BME280;7737;51.578;7.268;2024-01-10T06:30:54;102511.84;;;-5.55;100.00
15272;BME280;7737;51.578;7.268;2024-01-10T06:33:20;102508.13;;;-5.62;100.00
15272;BME280;7737;51.578;7.268;2024-01-10T06:35:47;102512.94;;;-5.50;100.00
15272;BME280;7737;51.578;7.268;2024-01-10T06:38:13;102507.56;;;-5.74;100.00
15272;BME280;7737;51.578;7.268;2024-01-10T06:40:42;102506.31;;;-5.82;100.00
15272;BME280;7737;51.578;7.268;2024-01-10T06:43:11;102502.19;;;-5.78;100.00
15272;BME280;7737;51.578;7.268;2024-01-10T06:45:38;102514.56;;;-5.71;100.00
15272;BME280;7737;51.578;7.268;2024-01-10T06:48:06;102521.13;;;-5.60;100.00
15272;BME280;7737;51.578;7.268;2024-01-10T06:50:32;102521.72;;;-5.66;100.00
15272;BME280;7737;51.578;7.268;2024-01-10T06:52:59;102516.06;;;-5.76;100.00
15272;BME280;7737;51.578;7.268;2024-01-10T06:55:26;102519.59;;;-5.74;100.00
15272;BME280;7737;51.578;7.268;2024-01-10T06:57:54;102508.84;;;-5.83;100.00
15272;BME280;7737;51.578;7.268;2024-01-10T07:00:22;102504.31;;;-5.89;100.00
15272;BME280;7737;51.578;7.268;2024-01-10T07:02:49;102505.56;;;-5.79;100.00
15272;BME280;7737;51.578;7.268;2024-01-10T07:05:17;102511.50;;;-5.82;100.00
15272;BME280;7737;51.578;7.268;2024-01-10T07:07:45;102508.78;;;-5.85;100.00
15272;BME280;7737;51.578;7.268;2024-01-10T07:10:11;102515.03;;;-5.80;100.00
15272;BME280;7737;51.578;7.268;2024-01-10T07:12:38;102526.09;;;-5.65;100.00
15272;BME280;7737;51.578;7.268;2024-01-10T07:15:06;102526.84;;;-5.67;100.00
15272;BME280;7737;51.578;7.268;2024-01-10T07:17:34;102523.94;;;-5.75;100.00
15272;BME280;7737;51.578;7.268;2024-01-10T07:20:00;102530.47;;;-5.83;100.00
15272;BME280;7737;51.578;7.268;2024-01-10T07:22:28;102521.75;;;-5.85;100.00
15272;BME280;7737;51.578;7.268;2024-01-10T07:24:54;102521.63;;;-5.88;100.00
15272;BME280;7737;51.578;7.268;2024-01-10T07:27:22;102527.03;;;-5.82;100.00
15272;BME280;7737;51.578;7.268;2024-01-10T07:29:49;102532.59;;;-5.93;100.00
15272;BME280;7737;51.578;7.268;2024-01-10T07:32:15;102527.28;;;-5.96;100.00
15272;BME280;7737;51.578;7.268;2024-01-10T07:34:43;102535.53;;;-5.86;100.00
15272;BME280;7737;51.578;7.268;2024-01-10T07:37:11;102536.97;;;-5.72;100.00
15272;BME280;7737;51.578;7.268;2024-01-10T07:39:37;102532.94;;;-5.67;100.00
15272;BME280;7737;51.578;7.268;2024-01-10T07:42:04;102532.66;;;-5.73;100.00
15272;BME280;7737;51.578;7.268;2024-01-10T07:44:30;102539.19;;;-5.81;100.00
15272;BME280;7737;51.578;7.268;2024-01-10T07:46:57;102531.25;;;-5.84;100.00
15272;BME280;7737;51.578;7.268;2024-01-10T07:49:23;102527.47;;;-5.92;100.00
15272;BME280;7737;51.578;7.268;2024-01-10T07:51:52;102531.16;;;-5.68;100.00
15272;BME280;7737;51.578;7.268;2024-01-10T07:54:19;102533.88;;;-5.45;100.00
15272;BME280;7737;51.578;7.268;2024-01-10T07:56:46;102528.00;;;-5.61;100.00
15272;BME280;7737;51.578;7.268;2024-01-10T07:59:12;102530.72;;;-5.77;100.00
15272;BME280;7737;51.578;7.268;2024-01-10T08:01:43;102533.78;;;-5.66;100.00
15272;BME280;7737;51.578;7.268;2024-01-10T08:04:11;102519.88;;;-5.68;100.00
15272;BME280;7737;51.578;7.268;2024-01-10T08:06:37;102526.09;;;-5.65;100.00
15272;BME280;7737;51.578;7.268;2024-01-10T08:09:04;102516.75;;;-5.61;100.00
15272;BME280;7737;51.578;7.268;2024-01-10T08:11:31;102521.47;;;-5.53;100.00
15272;BME280;7737;51.578;7.268;2024-01-10T08:13:57;102515.06;;;-5.41;100.00
15272;BME280;7737;51.578;7.268;2024-01-10T08:16:24;102511.22;;;-5.30;100.00
15272;BME280;7737;51.578;7.268;2024-01-10T08:18:50;102516.41;;;-5.30;100.00
15272;BME280;7737;51.578;7.268;2024-01-10T08:21:17;102510.00;;;-5.19;100.00
15272;BME280;7737;51.578;7.268;2024-01-10T08:23:44;102507.44;;;-5.18;100.00
15272;BME280;7737;51.578;7.268;2024-01-10T08:26:12;102498.25;;;-5.11;100.00
15272;BME280;7737;51.578;7.268;2024-01-10T08:28:39;102497.41;;;-5.10;100.00
15272;BME280;7737;51.578;7.268;2024-01-10T08:31:07;102495.66;;;-5.11;100.00
15272;BME280;7737;51.578;7.268;2024-01-10T08:33:33;102487.16;;;-5.07;100.00
15272;BME280;7737;51.578;7.268;2024-01-10T08:36:00;102493.81;;;-4.93;100.00
15272;BME280;7737;51.578;7.268;2024-01-10T08:38:27;102486.03;;;-4.93;100.00
15272;BME280;7737;51.578;7.268;2024-01-10T08:40:53;102488.19;;;-4.83;100.00
15272;BME280;7737;51.578;7.268;2024-01-10T08:43:21;102477.94;;;-4.80;100.00
15272;BME280;7737;51.578;7.268;2024-01-10T08:45:48;102478.28;;;-4.71;100.00
15272;BME280;7737;51.578;7.268;2024-01-10T08:48:15;102468.81;;;-4.70;100.00
15272;BME280;7737;51.578;7.268;2024-01-10T08:50:42;102475.38;;;-4.58;100.00
15272;BME280;7737;51.578;7.268;2024-01-10T08:53:09;102471.19;;;-4.54;100.00
15272;BME280;7737;51.578;7.268;2024-01-10T08:55:36;102476.63;;;-4.48;100.00
15272;BME280;7737;51.578;7.268;2024-01-10T08:58:04;102470.97;;;-4.38;100.00
15272;BME280;7737;51.578;7.268;2024-01-10T09:00:32;102463.22;;;-4.37;100.00
15272;BME280;7737;51.578;7.268;2024-01-10T09:02:59;102469.50;;;-4.32;100.00
15272;BME280;7737;51.578;7.268;2024-01-10T09:05:25;102466.44;;;-4.21;100.00
15272;BME280;7737;51.578;7.268;2024-01-10T09:07:52;102464.25;;;-4.11;100.00
15272;BME280;7737;51.578;7.268;2024-01-10T09:10:19;102466.06;;;-4.08;100.00
15272;BME280;7737;51.578;7.268;2024-01-10T09:12:46;102462.06;;;-4.00;100.00
15272;BME280;7737;51.578;7.268;2024-01-10T09:15:13;102456.78;;;-4.02;100.00
15272;BME280;7737;51.578;7.268;2024-01-10T09:17:41;102455.97;;;-4.01;100.00
15272;BME280;7737;51.578;7.268;2024-01-10T09:20:08;102446.97;;;-3.87;100.00
15272;BME280;7737;51.578;7.268;2024-01-10T09:22:35;102447.25;;;-3.79;100.00
15272;BME280;7737;51.578;7.268;2024-01-10T09:25:03;102441.56;;;-3.69;100.00
15272;BME280;7737;51.578;7.268;2024-01-10T09:27:31;102437.19;;;-3.70;100.00
15272;BME280;7737;51.578;7.268;2024-01-10T09:29:59;102423.91;;;-3.54;100.00
15272;BME280;7737;51.578;7.268;2024-01-10T09:32:27;102426.47;;;-3.55;100.00
15272;BME280;7737;51.578;7.268;2024-01-10T09:34:55;102432.19;;;-3.40;100.00
15272;BME280;7737;51.578;7.268;2024-01-10T09:37:21;102431.97;;;-3.46;100.00
15272;BME280;7737;51.578;7.268;2024-01-10T09:39:48;102427.97;;;-3.37;100.00
15272;BME280;7737;51.578;7.268;2024-01-10T09:42:15;102421.94;;;-3.36;100.00
15272;BME280;7737;51.578;7.268;2024-01-10T09:44:42;102410.50;;;-3.16;100.00
15272;BME280;7737;51.578;7.268;2024-01-10T09:47:09;102392.41;;;-3.13;100.00
15272;BME280;7737;51.578;7.268;2024-01-10T09:49:35;102392.00;;;-2.98;100.00
15272;BME280;7737;51.578;7.268;2024-01-10T09:52:05;102389.75;;;-2.87;100.00
15272;BME280;7737;51.578;7.268;2024-01-10T09:54:38;102382.88;;;-2.85;100.00
15272;BME280;7737;51.578;7.268;2024-01-10T09:57:06;102375.22;;;-2.81;100.00
15272;BME280;7737;51.578;7.268;2024-01-10T09:59:32;102369.50;;;-2.69;100.00
15272;BME280;7737;51.578;7.268;2024-01-10T10:01:59;102364.19;;;-2.72;100.00
15272;BME280;7737;51.578;7.268;2024-01-10T10:04:27;102360.41;;;-2.55;100.00
15272;BME280;7737;51.578;7.268;2024-01-10T10:06:58;102348.19;;;-2.56;100.00
15272;BME280;7737;51.578;7.268;2024-01-10T10:09:28;102346.06;;;-2.41;100.00
15272;BME280;7737;51.578;7.268;2024-01-10T10:11:55;102330.69;;;-2.32;100.00
15272;BME280;7737;51.578;7.268;2024-01-10T10:14:23;102324.31;;;-2.12;100.00
15272;BME280;7737;51.578;7.268;2024-01-10T10:16:51;102313.28;;;-2.03;100.00
15272;BME280;7737;51.578;7.268;2024-01-10T10:19:22;102306.47;;;-1.98;100.00
15272;BME280;7737;51.578;7.268;2024-01-10T10:21:49;102304.53;;;-2.05;100.00
15272;BME280;7737;51.578;7.268;2024-01-10T10:24:15;102305.44;;;-2.05;100.00
15272;BME280;7737;51.578;7.268;2024-01-10T10:26:44;102298.09;;;-1.87;100.00
15272;BME280;7737;51.578;7.268;2024-01-10T10:29:10;102290.59;;;-1.74;100.00
15272;BME280;7737;51.578;7.268;2024-01-10T10:31:37;102287.75;;;-1.83;100.00
15272;BME280;7737;51.578;7.268;2024-01-10T10:34:04;102281.75;;;-1.79;100.00
15272;BME280;7737;51.578;7.268;2024-01-10T10:36:30;102278.41;;;-1.75;100.00
15272;BME280;7737;51.578;7.268;2024-01-10T10:38:59;102265.25;;;-1.80;98.38
15272;BME280;7737;51.578;7.268;2024-01-10T10:41:27;102255.25;;;-1.63;98.73
15272;BME280;7737;51.578;7.268;2024-01-10T10:43:57;102250.91;;;-1.64;97.76
15272;BME280;7737;51.578;7.268;2024-01-10T10:46:26;102239.88;;;-1.53;97.02
15272;BME280;7737;51.578;7.268;2024-01-10T10:48:54;102234.22;;;-1.35;96.91
15272;BME280;7737;51.578;7.268;2024-01-10T10:51:27;102238.41;;;-1.42;96.91
15272;BME280;7737;51.578;7.268;2024-01-10T10:53:59;102223.22;;;-1.20;95.72
15272;BME280;7737;51.578;7.268;2024-01-10T10:56:29;102219.50;;;-1.32;95.29
15272;BME280;7737;51.578;7.268;2024-01-10T10:58:58;102212.31;;;-1.03;95.01
15272;BME280;7737;51.578;7.268;2024-01-10T11:01:26;102203.72;;;-0.99;94.01
15272;BME280;7737;51.578;7.268;2024-01-10T11:03:54;102205.34;;;-1.04;94.69
15272;BME280;7737;51.578;7.268;2024-01-10T11:06:22;102190.16;;;-0.81;93.43
15272;BME280;7737;51.578;7.268;2024-01-10T11:08:51;102195.13;;;-0.93;92.90
15272;BME280;7737;51.578;7.268;2024-01-10T11:11:29;102185.03;;;-0.77;92.21
15272;BME280;7737;51.578;7.268;2024-01-10T11:14:09;102186.72;;;-0.79;92.73
15272;BME280;7737;51.578;7.268;2024-01-10T11:16:53;102180.75;;;-0.73;91.76
15272;BME280;7737;51.578;7.268;2024-01-10T11:19:49;102172.50;;;-0.51;90.58
15272;BME280;7737;51.578;7.268;2024-01-10T11:22:28;102186.09;;;-0.67;91.17
15272;BME280;7737;51.578;7.268;2024-01-10T11:24:58;102171.25;;;-0.70;89.71
15272;BME280;7737;51.578;7.268;2024-01-10T11:27:26;102174.09;;;-0.57;89.40
15272;BME280;7737;51.578;7.268;2024-01-10T11:29:54;102155.28;;;-0.40;88.93
15272;BME280;7737;51.578;7.268;2024-01-10T11:32:22;102152.31;;;-0.59;88.07
15272;BME280;7737;51.578;7.268;2024-01-10T11:34:57;102143.00;;;-0.45;87.52
15272;BME280;7737;51.578;7.268;2024-01-10T11:37:27;102132.00;;;-0.26;87.40
15272;BME280;7737;51.578;7.268;2024-01-10T11:39:55;102125.22;;;-0.15;86.97
15272;BME280;7737;51.578;7.268;2024-01-10T11:42:22;102117.91;;;-0.37;86.52
15272;BME280;7737;51.578;7.268;2024-01-10T11:44:50;102114.63;;;-0.24;86.39
15272;BME280;7737;51.578;7.268;2024-01-10T11:47:19;102103.31;;;-0.25;85.68
15272;BME280;7737;51.578;7.268;2024-01-10T11:49:56;102097.31;;;-0.19;84.78
15272;BME280;7737;51.578;7.268;2024-01-10T11:52:23;102096.69;;;-0.03;85.51
15272;BME280;7737;51.578;7.268;2024-01-10T11:54:50;102095.31;;;0.22;85.50
15272;BME280;7737;51.578;7.268;2024-01-10T11:57:20;102092.78;;;0.26;85.58
15272;BME280;7737;51.578;7.268;2024-01-10T11:59:50;102089.47;;;0.39;85.34
15272;BME280;7737;51.578;7.268;2024-01-10T12:02:18;102087.56;;;0.29;84.66
15272;BME280;7737;51.578;7.268;2024-01-10T12:04:45;102067.41;;;0.21;83.34
15272;BME280;7737;51.578;7.268;2024-01-10T12:07:12;102071.91;;;0.31;84.10
15272;BME280;7737;51.578;7.268;2024-01-10T12:09:39;102072.75;;;0.30;83.24
15272;BME280;7737;51.578;7.268;2024-01-10T12:12:07;102075.56;;;0.42;83.47
15272;BME280;7737;51.578;7.268;2024-01-10T12:14:34;102053.75;;;0.43;81.52
15272;BME280;7737;51.578;7.268;2024-01-10T12:17:02;102060.84;;;0.51;81.13
15272;BME280;7737;51.578;7.268;2024-01-10T12:19:31;102044.28;;;0.51;80.02
15272;BME280;7737;51.578;7.268;2024-01-10T12:21:57;102045.00;;;0.39;80.83
15272;BME280;7737;51.578;7.268;2024-01-10T12:24:27;102045.19;;;0.53;80.19
15272;BME280;7737;51.578;7.268;2024-01-10T12:26:55;102042.53;;;0.51;80.07
15272;BME280;7737;51.578;7.268;2024-01-10T12:29:22;102040.94;;;0.63;80.39
15272;BME280;7737;51.578;7.268;2024-01-10T12:31:50;102045.97;;;0.46;80.51
15272;BME280;7737;51.578;7.268;2024-01-10T12:34:17;102043.53;;;0.59;79.71
15272;BME280;7737;51.578;7.268;2024-01-10T12:36:45;102021.78;;;0.67;79.58
15272;BME280;7737;51.578;7.268;2024-01-10T12:39:12;102019.88;;;0.53;79.15
15272;BME280;7737;51.578;7.268;2024-01-10T12:41:40;102030.44;;;0.61;80.28
15272;BME280;7737;51.578;7.268;2024-01-10T12:44:06;102033.97;;;0.65;80.02
15272;BME280;7737;51.578;7.268;2024-01-10T12:46:33;102023.56;;;0.68;79.45
15272;BME280;7737;51.578;7.268;2024-01-10T12:49:00;102025.34;;;0.72;79.28
15272;BME280;7737;51.578;7.268;2024-01-10T12:51:27;102020.84;;;0.60;78.88
15272;BME280;7737;51.578;7.268;2024-01-10T12:53:57;102018.56;;;0.87;79.09